createdAt,value
2018-03-02T00:00:30.156Z,52.15
2018-03-02T00:02:56.249Z,43.97
2018-03-02T00:05:22.196Z,44.03
2018-03-02T00:07:48.157Z,48.30
2018-03-02T00:10:14.104Z,51.37
2018-03-02T00:12:40.821Z,47.92
2018-03-02T00:15:06.816Z,53.80
2018-03-02T00:17:32.752Z,49.47
2018-03-02T00:19:58.849Z,45.42
2018-03-02T00:22:24.797Z,44.83
2018-03-02T00:24:50.780Z,49.60
2018-03-02T00:27:16.723Z,53.85
2018-03-02T00:29:42.677Z,48.35
2018-03-02T00:32:08.603Z,49.47
2018-03-02T00:34:34.837Z,45.85
2018-03-02T00:37:01.529Z,49.90
2018-03-02T00:39:27.479Z,48.15
2018-03-02T00:41:53.452Z,50.50
2018-03-02T00:44:19.420Z,51.20
2018-03-02T00:46:45.403Z,42.53
2018-03-02T00:49:11.345Z,49.00
2018-03-02T00:51:37.416Z,45.55
2018-03-02T00:54:04.110Z,51.00
2018-03-02T00:56:30.083Z,47.88
2018-03-02T00:58:56.752Z,52.92
2018-03-02T01:01:22.730Z,52.60
2018-03-02T01:03:49.412Z,50.75
2018-03-02T01:06:15.357Z,45.35
2018-03-02T01:08:41.440Z,51.50
2018-03-02T01:11:07.379Z,46.50
2018-03-02T01:13:33.340Z,62.92
2018-03-02T01:15:59.303Z,51.10
2018-03-02T01:18:25.263Z,50.88
2018-03-02T01:20:51.226Z,47.78
2018-03-02T01:23:17.911Z,56.42
2018-03-02T01:25:43.848Z,54.10
2018-03-02T01:28:09.927Z,60.00
2018-03-02T01:30:35.856Z,53.63
2018-03-02T01:33:01.817Z,52.22
2018-03-02T01:35:27.893Z,55.85
2018-03-02T01:37:53.860Z,49.58
2018-03-02T01:40:19.825Z,57.20
2018-03-02T01:42:46.509Z,52.67
2018-03-02T01:45:12.593Z,56.42
2018-03-02T01:47:39.273Z,53.38
2018-03-02T01:50:05.240Z,46.92
2018-03-02T01:52:31.932Z,56.05
2018-03-02T01:54:57.908Z,49.15
2018-03-02T01:57:24.587Z,48.40
2018-03-02T01:59:50.512Z,52.75
2018-03-02T02:02:16.599Z,52.88
2018-03-02T02:04:43.289Z,53.17
2018-03-02T02:07:09.267Z,52.55
2018-03-02T02:09:35.951Z,55.00
2018-03-02T02:12:01.908Z,47.40
2018-03-02T02:14:27.836Z,47.70
2018-03-02T02:16:54.648Z,53.22
2018-03-02T02:19:20.580Z,50.33
2018-03-02T02:21:46.545Z,54.80
2018-03-02T02:24:12.479Z,52.70
2018-03-02T02:26:38.411Z,49.63
2018-03-02T02:29:04.380Z,48.87
2018-03-02T02:31:30.317Z,66.43
2018-03-02T02:33:56.998Z,51.78
2018-03-02T02:36:23.233Z,42.10
2018-03-02T02:38:49.187Z,49.88
2018-03-02T02:41:15.189Z,60.75
2018-03-02T02:43:41.133Z,53.97
2018-03-02T02:46:07.088Z,48.92
2018-03-02T02:48:33.057Z,52.72
2018-03-02T02:50:59.153Z,46.55
2018-03-02T02:53:25.091Z,48.28
2018-03-02T02:55:51.065Z,55.67
2018-03-02T02:58:17.005Z,57.03
2018-03-02T03:00:42.971Z,55.20
2018-03-02T03:03:08.927Z,48.83
2018-03-02T03:05:34.868Z,51.85
2018-03-02T03:08:00.949Z,54.00
2018-03-02T03:10:26.867Z,58.90
2018-03-02T03:12:52.823Z,53.47
2018-03-02T03:15:18.757Z,52.58
2018-03-02T03:17:44.728Z,50.80
2018-03-02T03:20:10.651Z,59.17
2018-03-02T03:22:36.582Z,50.60
2018-03-02T03:25:03.416Z,51.13
2018-03-02T03:27:29.346Z,59.65
2018-03-02T03:29:55.296Z,42.05
2018-03-02T03:32:21.242Z,55.78
2018-03-02T03:34:47.348Z,55.70
2018-03-02T03:37:13.288Z,53.10
2018-03-02T03:39:39.306Z,48.95
2018-03-02T03:42:05.275Z,52.50
2018-03-02T03:44:31.210Z,51.92
2018-03-02T03:46:57.910Z,50.03
2018-03-02T03:49:23.851Z,49.22
2018-03-02T03:51:49.829Z,57.08
2018-03-02T03:54:15.786Z,62.58
2018-03-02T03:56:41.785Z,44.85
2018-03-02T03:59:07.716Z,57.78
2018-03-02T04:01:33.681Z,47.50
2018-03-02T04:04:00.375Z,50.65
2018-03-02T04:06:26.311Z,57.92
2018-03-02T04:08:52.282Z,56.83
2018-03-02T04:11:18.260Z,55.40
2018-03-02T04:13:44.269Z,50.00
2018-03-02T04:16:10.224Z,57.33
2018-03-02T04:18:36.171Z,53.42
2018-03-02T04:21:02.135Z,59.22
2018-03-02T04:23:28.101Z,58.10
2018-03-02T04:25:54.787Z,44.40
2018-03-02T04:28:20.855Z,51.22
2018-03-02T04:30:47.557Z,55.35
2018-03-02T04:33:13.506Z,58.92
2018-03-02T04:35:39.494Z,42.50
2018-03-02T04:38:05.431Z,53.85
2018-03-02T04:40:31.356Z,55.85
2018-03-02T04:42:57.584Z,53.63
2018-03-02T04:45:23.520Z,54.72
2018-03-02T04:47:49.496Z,56.72
2018-03-02T04:50:15.456Z,56.75
2018-03-02T04:52:41.380Z,50.70
2018-03-02T04:55:07.330Z,47.20
2018-03-02T04:57:34.007Z,54.58
2018-03-02T05:00:00.090Z,54.33
2018-03-02T05:02:26.759Z,57.15
2018-03-02T05:04:52.760Z,52.15
2018-03-02T05:07:18.689Z,53.87
2018-03-02T05:09:44.625Z,50.70
2018-03-02T05:12:10.600Z,56.53
2018-03-02T05:14:36.546Z,53.72
2018-03-02T05:17:02.620Z,47.35
2018-03-02T05:19:28.556Z,58.17
2018-03-02T05:21:54.619Z,54.50
2018-03-02T05:24:20.559Z,58.40
2018-03-02T05:26:46.515Z,61.22
2018-03-02T05:29:12.452Z,55.70
2018-03-02T05:31:38.430Z,58.30
2018-03-02T05:34:04.396Z,55.80
2018-03-02T05:36:30.339Z,55.25
2018-03-02T05:38:57.197Z,56.88
2018-03-02T05:41:23.276Z,50.63
2018-03-02T05:43:49.228Z,54.28
2018-03-02T05:46:15.915Z,54.88
2018-03-02T05:48:41.996Z,51.30
2018-03-02T05:51:07.928Z,51.08
2018-03-02T05:53:33.857Z,53.13
2018-03-02T05:55:59.883Z,59.63
2018-03-02T05:58:25.803Z,58.42
2018-03-02T06:00:51.807Z,55.83
2018-03-02T06:03:17.761Z,53.85
2018-03-02T06:05:43.855Z,56.10
2018-03-02T06:08:10.551Z,53.17
2018-03-02T06:10:36.495Z,57.78
2018-03-02T06:13:03.205Z,46.00
2018-03-02T06:15:29.152Z,51.47
2018-03-02T06:17:55.119Z,46.40
2018-03-02T06:20:21.059Z,55.55
2018-03-02T06:22:47.055Z,52.22
2018-03-02T06:25:12.997Z,54.60
2018-03-02T06:27:38.974Z,50.05
2018-03-02T06:30:05.669Z,56.47
2018-03-02T06:32:31.604Z,59.78
2018-03-02T06:34:57.699Z,56.00
2018-03-02T06:37:23.630Z,56.15
2018-03-02T06:39:49.696Z,53.78
2018-03-02T06:42:15.648Z,53.17
2018-03-02T06:44:41.625Z,54.45
2018-03-02T06:47:07.573Z,61.37
2018-03-02T06:49:34.304Z,41.20
2018-03-02T06:52:00.993Z,55.15
2018-03-02T06:54:27.728Z,60.45
2018-03-02T06:56:53.665Z,52.90
2018-03-02T06:59:19.600Z,47.20
2018-03-02T07:01:45.580Z,46.05
2018-03-02T07:04:11.543Z,47.33
2018-03-02T07:06:37.482Z,52.25
2018-03-02T07:09:03.416Z,46.92
2018-03-02T07:11:30.248Z,53.53
2018-03-02T07:13:56.181Z,57.33
2018-03-02T07:16:23.016Z,52.65
2018-03-02T07:18:49.703Z,62.35
2018-03-02T07:21:15.658Z,56.40
2018-03-02T07:23:41.592Z,51.92
2018-03-02T07:26:07.525Z,54.13
2018-03-02T07:28:34.224Z,52.97
2018-03-02T07:31:00.167Z,58.78
2018-03-02T07:33:26.252Z,53.53
2018-03-02T07:35:52.179Z,49.90
2018-03-02T07:38:18.147Z,49.10
2018-03-02T07:40:44.085Z,55.53
2018-03-02T07:43:10.932Z,55.75
2018-03-02T07:45:36.864Z,58.10
2018-03-02T07:48:02.965Z,59.08
2018-03-02T07:50:29.648Z,57.88
2018-03-02T07:52:55.579Z,55.65
2018-03-02T07:55:21.550Z,56.92
2018-03-02T07:57:48.248Z,54.97
2018-03-02T08:00:14.208Z,57.42
2018-03-02T08:02:40.875Z,48.03
2018-03-02T08:05:06.951Z,53.67
2018-03-02T08:07:32.884Z,52.50
2018-03-02T08:09:59.572Z,56.95
2018-03-02T08:12:25.536Z,56.58
2018-03-02T08:14:51.467Z,59.08
2018-03-02T08:17:18.200Z,56.63
2018-03-02T08:19:44.139Z,62.35
2018-03-02T08:22:10.842Z,56.53
2018-03-02T08:24:36.789Z,53.20
2018-03-02T08:27:03.471Z,58.00
2018-03-02T08:29:29.436Z,52.97
2018-03-02T08:31:55.371Z,51.58
2018-03-02T08:34:22.329Z,54.75
2018-03-02T08:36:49.022Z,51.42
2018-03-02T08:39:22.561Z,60.90
2018-03-02T08:41:49.280Z,46.70
2018-03-02T08:44:15.236Z,56.30
2018-03-02T08:46:41.194Z,49.28
2018-03-02T08:49:07.296Z,53.55
2018-03-02T08:51:33.252Z,54.20
2018-03-02T08:53:59.193Z,49.83
2018-03-02T08:56:25.170Z,58.17
2018-03-02T08:58:51.129Z,54.15
2018-03-02T09:01:17.109Z,52.60
2018-03-02T09:03:43.061Z,52.25
2018-03-02T09:06:09.173Z,54.50
2018-03-02T09:08:35.119Z,60.28
2018-03-02T09:11:01.073Z,57.78
2018-03-02T09:13:27.776Z,53.20
2018-03-02T09:15:53.728Z,49.85
2018-03-02T09:18:20.461Z,68.37
2018-03-02T09:20:47.164Z,49.13
2018-03-02T09:23:13.121Z,54.17
2018-03-02T09:25:39.116Z,49.58
2018-03-02T09:28:05.057Z,57.45
2018-03-02T09:30:31.050Z,51.60
2018-03-02T09:32:57.015Z,55.20
2018-03-02T09:35:23.857Z,55.83
2018-03-02T09:37:50.535Z,50.28
2018-03-02T09:40:16.519Z,56.42
2018-03-02T09:42:43.253Z,53.08
2018-03-02T09:45:10.112Z,55.97
2018-03-02T09:47:36.803Z,48.55
2018-03-02T09:50:02.744Z,52.67
2018-03-02T09:52:28.712Z,51.05
2018-03-02T09:54:54.687Z,48.60
2018-03-02T09:57:22.560Z,54.72
2018-03-02T09:59:50.712Z,53.80
2018-03-02T10:02:16.857Z,59.53
2018-03-02T10:04:44.716Z,50.78
2018-03-02T10:07:11.623Z,52.35
2018-03-02T10:09:39.472Z,51.47
2018-03-02T10:12:07.899Z,52.40
2018-03-02T10:14:34.758Z,56.28
2018-03-02T10:17:02.397Z,53.95
2018-03-02T10:19:29.025Z,51.13
2018-03-02T10:21:56.270Z,52.65
2018-03-02T10:24:23.293Z,53.22
2018-03-02T10:26:50.681Z,54.35
2018-03-02T10:29:18.110Z,50.85
2018-03-02T10:31:44.791Z,50.83
2018-03-02T10:34:11.618Z,48.33
2018-03-02T10:36:39.696Z,52.92
2018-03-02T10:39:07.265Z,48.17
2018-03-02T10:41:35.290Z,59.25
2018-03-02T10:44:02.420Z,49.70
2018-03-02T10:46:30.413Z,50.33
2018-03-02T10:48:56.680Z,50.42
2018-03-02T10:51:24.296Z,48.72
2018-03-02T10:53:50.869Z,51.88
2018-03-02T10:56:16.857Z,51.08
2018-03-02T10:58:42.872Z,52.97
2018-03-02T11:01:08.873Z,50.33
2018-03-02T11:03:36.280Z,51.80
2018-03-02T11:06:03.205Z,48.03
2018-03-02T11:08:29.188Z,50.22
2018-03-02T11:10:55.330Z,50.40
2018-03-02T11:13:21.723Z,54.33
2018-03-02T11:15:47.771Z,52.55
2018-03-02T11:18:14.841Z,52.60
2018-03-02T11:20:43.021Z,52.38
2018-03-02T11:23:09.685Z,54.40
2018-03-02T11:25:35.817Z,51.83
2018-03-02T11:28:02.068Z,53.17
2018-03-02T11:30:28.092Z,50.67
2018-03-02T11:32:54.141Z,54.25
2018-03-02T11:35:20.841Z,50.88
2018-03-02T11:37:47.020Z,47.45
2018-03-02T11:40:13.011Z,49.42
2018-03-02T11:42:39.301Z,50.63
2018-03-02T11:45:05.271Z,50.40
2018-03-02T11:47:31.246Z,49.83
2018-03-02T11:49:57.210Z,46.80
2018-03-02T11:52:23.182Z,57.53
2018-03-02T11:54:49.169Z,53.58
2018-03-02T11:57:15.857Z,50.20
2018-03-02T11:59:41.960Z,46.25
2018-03-02T12:02:07.912Z,50.78
2018-03-02T12:04:33.877Z,55.28
2018-03-02T12:07:00.574Z,52.70
2018-03-02T12:09:26.597Z,54.35
2018-03-02T12:11:52.549Z,51.95
2018-03-02T12:14:18.620Z,43.80
2018-03-02T12:16:44.594Z,51.70
2018-03-02T12:19:10.573Z,47.33
2018-03-02T12:21:36.543Z,46.90
2018-03-02T12:24:02.492Z,49.08
2018-03-02T12:26:28.592Z,48.45
2018-03-02T12:28:54.540Z,46.88
2018-03-02T12:31:20.557Z,47.10
2018-03-02T12:33:47.282Z,50.67
2018-03-02T12:36:13.240Z,47.45
2018-03-02T12:38:39.211Z,52.03
2018-03-02T12:41:05.281Z,54.40
2018-03-02T12:43:31.265Z,53.63
2018-03-02T12:45:57.212Z,51.10
2018-03-02T12:48:23.318Z,51.95
2018-03-02T12:50:50.029Z,52.97
2018-03-02T12:53:15.965Z,51.67
2018-03-02T12:55:41.940Z,50.40
2018-03-02T12:58:07.892Z,54.08
2018-03-02T13:00:34.714Z,48.15
2018-03-02T13:03:00.666Z,48.38
2018-03-02T13:05:26.713Z,51.85
2018-03-02T13:07:53.413Z,47.97
2018-03-02T13:10:19.403Z,52.88
2018-03-02T13:12:45.359Z,58.65
2018-03-02T13:15:11.353Z,51.20
2018-03-02T13:17:37.309Z,54.88
2018-03-02T13:20:03.320Z,55.90
2018-03-02T13:22:29.423Z,57.75
2018-03-02T13:24:55.385Z,52.40
2018-03-02T13:27:21.367Z,52.33
2018-03-02T13:29:47.331Z,46.53
2018-03-02T13:32:13.309Z,50.83
2018-03-02T13:34:39.260Z,49.58
2018-03-02T13:37:05.245Z,58.70
2018-03-02T13:39:31.340Z,45.40
2018-03-02T13:41:58.167Z,53.60
2018-03-02T13:44:24.150Z,50.47
2018-03-02T13:46:50.091Z,56.47
2018-03-02T13:49:16.108Z,55.00
2018-03-02T13:51:42.089Z,62.62
2018-03-02T13:54:08.832Z,55.08
2018-03-02T13:56:35.554Z,55.45
2018-03-02T13:59:01.516Z,59.35
2018-03-02T14:01:27.509Z,54.05
2018-03-02T14:03:54.192Z,52.65
2018-03-02T14:06:20.176Z,57.03
2018-03-02T14:08:46.932Z,52.95
2018-03-02T14:11:12.881Z,52.78
2018-03-02T14:13:38.857Z,52.80
2018-03-02T14:16:04.838Z,49.70
2018-03-02T14:18:30.875Z,51.88
2018-03-02T14:20:56.869Z,50.30
2018-03-02T14:23:22.832Z,60.17
2018-03-02T14:25:48.944Z,48.17
2018-03-02T14:28:14.904Z,55.70
2018-03-02T14:30:40.893Z,50.17
2018-03-02T14:33:06.839Z,53.72
2018-03-02T14:35:33.555Z,55.60
2018-03-02T14:37:59.511Z,52.30
2018-03-02T14:40:25.636Z,47.45
2018-03-02T14:42:51.755Z,57.58
2018-03-02T14:45:18.488Z,49.63
2018-03-02T14:47:44.460Z,52.90
2018-03-02T14:50:10.429Z,51.30
2018-03-02T14:52:37.159Z,54.75
2018-03-02T14:55:03.126Z,51.10
2018-03-02T14:57:29.244Z,57.30
2018-03-02T14:59:55.197Z,53.25
2018-03-02T15:02:21.222Z,49.92
2018-03-02T15:04:47.159Z,50.90
2018-03-02T15:07:13.142Z,51.13
2018-03-02T15:09:39.118Z,52.42
2018-03-02T15:12:05.095Z,53.55
2018-03-02T15:14:31.051Z,57.20
2018-03-02T15:16:57.157Z,54.72
2018-03-02T15:19:23.113Z,48.87
2018-03-02T15:21:49.113Z,52.45
2018-03-02T15:24:15.108Z,52.28
2018-03-02T15:26:41.039Z,56.90
2018-03-02T15:29:07.052Z,51.90
2018-03-02T15:31:33.031Z,50.12
2018-03-02T15:33:59.880Z,56.08
2018-03-02T15:36:26.566Z,50.55
2018-03-02T15:38:52.569Z,50.28
2018-03-02T15:41:18.654Z,57.17
2018-03-02T15:43:45.411Z,51.53
2018-03-02T15:46:12.133Z,57.47
2018-03-02T15:48:38.241Z,52.75
2018-03-02T15:51:04.222Z,49.75
2018-03-02T15:53:30.162Z,58.53
2018-03-02T15:55:56.143Z,56.55
2018-03-02T15:58:22.861Z,51.45
2018-03-02T16:00:48.852Z,48.42
2018-03-02T16:03:14.809Z,58.60
2018-03-02T16:05:40.901Z,52.60
2018-03-02T16:08:06.850Z,54.70
2018-03-02T16:10:32.855Z,53.40
2018-03-02T16:12:58.842Z,58.25
2018-03-02T16:18:00.339Z,59.15
2018-03-02T16:23:01.449Z,50.60
2018-03-02T16:25:29.112Z,50.72
2018-03-02T16:28:04.987Z,58.40
2018-03-02T16:30:57.379Z,52.90
2018-03-02T16:33:57.748Z,56.67
2018-03-02T16:36:28.060Z,61.05
2018-03-02T16:38:57.831Z,60.60
2018-03-02T16:41:24.362Z,55.50
2018-03-02T16:44:12.381Z,58.28
2018-03-02T16:46:54.629Z,63.10
2018-03-02T16:49:22.597Z,57.28
2018-03-02T16:51:50.224Z,58.70
2018-03-02T16:54:17.005Z,57.90
2018-03-02T16:56:43.954Z,55.35
2018-03-02T16:59:10.671Z,64.45
2018-03-02T17:01:39.417Z,61.25
2018-03-02T17:04:05.409Z,56.80
2018-03-02T17:06:32.815Z,64.85
2018-03-02T17:09:00.238Z,61.90
2018-03-02T17:11:29.394Z,64.53
2018-03-02T17:14:02.225Z,63.42
2018-03-02T17:16:28.278Z,60.55
2018-03-02T17:18:57.408Z,68.62
2018-03-02T17:21:25.440Z,67.40
2018-03-02T17:23:52.665Z,60.55
2018-03-02T17:26:20.084Z,63.50
2018-03-02T17:28:48.301Z,55.60
2018-03-02T17:31:16.293Z,58.55
2018-03-02T17:33:42.977Z,69.78
2018-03-02T17:41:29.542Z,60.88
2018-03-02T17:43:55.496Z,60.33
2018-03-02T17:46:21.644Z,59.17
2018-03-02T17:48:47.578Z,61.92
2018-03-02T17:51:14.308Z,72.23
2018-03-02T17:53:40.271Z,65.65
2018-03-02T17:56:06.245Z,64.00
2018-03-02T17:58:32.268Z,68.95
2018-03-02T18:00:59.008Z,68.45
2018-03-02T18:03:25.166Z,63.67
2018-03-02T18:05:51.199Z,62.60
2018-03-02T18:08:17.236Z,59.40
2018-03-02T18:10:43.222Z,60.92
2018-03-02T18:13:10.017Z,60.08
2018-03-02T18:15:36.017Z,56.53
2018-03-02T18:18:02.018Z,65.18
2018-03-02T18:20:28.880Z,64.57
2018-03-02T18:22:54.844Z,74.50
2018-03-02T18:25:20.935Z,71.70
2018-03-02T18:27:46.896Z,64.45
2018-03-02T18:30:12.893Z,68.68
2018-03-02T18:32:38.870Z,68.32
2018-03-02T18:35:05.768Z,67.35
2018-03-02T18:37:31.782Z,69.72
2018-03-02T18:39:57.744Z,65.60
2018-03-02T18:42:24.494Z,61.30
2018-03-02T18:44:51.197Z,64.15
2018-03-02T18:47:17.175Z,72.93
2018-03-02T18:49:43.145Z,67.35
2018-03-02T18:52:09.189Z,66.47
2018-03-02T18:54:35.184Z,73.65
2018-03-02T18:57:01.188Z,59.20
2018-03-02T18:59:27.159Z,66.05
2018-03-02T19:01:53.145Z,66.97
2018-03-02T19:04:19.093Z,68.68
2018-03-02T19:06:45.113Z,66.30
2018-03-02T19:09:11.116Z,66.37
2018-03-02T19:11:37.061Z,67.15
2018-03-02T19:14:03.031Z,72.87
2018-03-02T19:16:29.017Z,66.10
2018-03-02T19:18:54.989Z,70.05
2018-03-02T19:21:20.963Z,70.50
2018-03-02T19:23:47.729Z,63.08
2018-03-02T19:26:13.695Z,67.35
2018-03-02T19:28:39.727Z,67.25
2018-03-02T19:31:05.691Z,73.05
2018-03-02T19:33:31.701Z,68.43
2018-03-02T19:35:58.553Z,64.78
2018-03-02T19:38:25.282Z,72.35
2018-03-02T19:40:51.277Z,68.95
2018-03-02T19:43:17.494Z,67.62
2018-03-02T19:45:43.478Z,59.95
2018-03-02T19:48:09.458Z,63.30
2018-03-02T19:50:35.420Z,59.22
2018-03-02T19:53:01.421Z,62.53
2018-03-02T19:55:28.366Z,61.55
2018-03-02T19:57:55.090Z,66.12
2018-03-02T20:00:21.198Z,72.20
2018-03-02T20:02:47.165Z,66.22
2018-03-02T20:05:13.156Z,65.10
2018-03-02T20:07:39.204Z,65.97
2018-03-02T20:10:05.940Z,59.92
2018-03-02T20:12:32.682Z,73.22
2018-03-02T20:14:58.620Z,70.20
2018-03-02T20:17:24.644Z,68.60
2018-03-02T20:19:50.629Z,73.90
2018-03-02T20:22:16.601Z,66.62
2018-03-02T20:24:42.600Z,74.20
2018-03-02T20:27:08.559Z,73.53
2018-03-02T20:29:35.453Z,67.78
2018-03-02T20:32:01.415Z,72.82
2018-03-02T20:34:27.412Z,75.05
2018-03-02T20:36:54.105Z,67.07
2018-03-02T20:39:20.085Z,81.50
2018-03-02T20:41:46.091Z,81.10
2018-03-02T20:44:12.969Z,81.20
2018-03-02T20:46:38.922Z,78.72
2018-03-02T20:49:04.912Z,75.72
2018-03-02T20:51:30.910Z,72.30
2018-03-02T20:53:57.612Z,79.37
2018-03-02T20:56:23.637Z,71.93
2018-03-02T20:58:49.602Z,77.18
2018-03-02T21:01:15.713Z,76.37
2018-03-02T21:03:42.421Z,82.32
2018-03-02T21:06:08.443Z,80.65
2018-03-02T21:08:34.431Z,77.97
2018-03-02T21:11:00.405Z,93.78
2018-03-02T21:13:26.412Z,82.60
2018-03-02T21:15:52.528Z,83.57
2018-03-02T21:18:18.524Z,83.55
2018-03-02T21:20:44.477Z,91.10
2018-03-02T21:23:10.470Z,74.68
2018-03-02T21:25:36.449Z,87.43
2018-03-02T21:28:03.207Z,83.62
2018-03-02T21:30:29.169Z,85.15
2018-03-02T21:32:55.132Z,96.35
2018-03-02T21:35:21.238Z,83.18
2018-03-02T21:37:47.208Z,81.12
2018-03-02T21:40:13.183Z,87.80
2018-03-02T21:42:39.138Z,83.28
2018-03-02T21:45:05.870Z,91.12
2018-03-02T21:47:33.510Z,83.30
2018-03-02T21:49:59.634Z,83.65
2018-03-02T21:52:25.611Z,96.85
2018-03-02T21:54:51.624Z,81.95
2018-03-02T21:57:17.600Z,93.28
2018-03-02T21:59:43.588Z,89.35
2018-03-02T22:02:09.526Z,93.80
2018-03-02T22:04:35.625Z,91.57
2018-03-02T22:07:01.589Z,94.22
2018-03-02T22:09:27.578Z,88.72
2018-03-02T22:11:53.541Z,94.95
2018-03-02T22:14:19.504Z,100.22
2018-03-02T22:16:45.478Z,101.82
2018-03-02T22:19:11.423Z,97.15
2018-03-02T22:21:37.537Z,97.32
2018-03-02T22:24:03.482Z,98.60
2018-03-02T22:26:29.506Z,101.35
2018-03-02T22:28:56.228Z,94.22
2018-03-02T22:31:22.182Z,99.93
2018-03-02T22:33:48.144Z,99.90
2018-03-02T22:36:14.437Z,90.90
2018-03-02T22:38:40.428Z,94.50
2018-03-02T22:41:07.151Z,93.60
2018-03-02T22:43:33.107Z,94.93
2018-03-02T22:45:59.080Z,92.43
2018-03-02T22:48:25.057Z,102.47
2018-03-02T22:50:51.000Z,106.22
2018-03-02T22:53:17.094Z,99.70
2018-03-02T22:55:43.792Z,98.45
2018-03-02T22:58:09.829Z,95.22
2018-03-02T23:00:35.812Z,102.07
2018-03-02T23:03:01.778Z,104.18
2018-03-02T23:05:27.748Z,108.93
2018-03-02T23:07:53.721Z,98.95
2018-03-02T23:10:19.703Z,107.87
2018-03-02T23:12:45.732Z,111.35
2018-03-02T23:15:11.673Z,104.03
2018-03-02T23:17:37.758Z,109.80
2018-03-02T23:20:03.725Z,108.60
2018-03-02T23:22:29.728Z,94.65
2018-03-02T23:24:55.676Z,94.37
2018-03-02T23:27:21.794Z,104.00
2018-03-02T23:29:47.764Z,108.32
2018-03-02T23:32:13.721Z,108.60
2018-03-02T23:34:39.839Z,99.07
2018-03-02T23:37:05.792Z,114.62
2018-03-02T23:39:31.769Z,106.03
2018-03-02T23:41:57.732Z,103.10
2018-03-02T23:44:23.715Z,114.12
2018-03-02T23:46:49.796Z,99.60
2018-03-02T23:49:16.489Z,115.20
2018-03-02T23:51:42.492Z,107.87
2018-03-02T23:54:08.419Z,111.53
2018-03-02T23:56:34.395Z,109.87
2018-03-02T23:59:00.339Z,105.37
